createdAt,value
2024-01-16T00:00:20.468Z,7.60
2024-01-16T00:02:49.746Z,5.53
2024-01-16T00:05:17.874Z,4.63
2024-01-16T00:07:45.776Z,4.83
2024-01-16T00:10:13.688Z,4.13
2024-01-16T00:12:42.226Z,3.67
2024-01-16T00:15:11.994Z,6.27
2024-01-16T00:17:40.047Z,6.93
2024-01-16T00:20:10.595Z,7.93
2024-01-16T00:22:38.541Z,3.57
2024-01-16T00:25:07.562Z,4.50
2024-01-16T00:27:35.433Z,3.40
2024-01-16T00:30:03.321Z,8.93
2024-01-16T00:32:31.274Z,11.47
2024-01-16T00:34:59.174Z,6.97
2024-01-16T00:37:28.397Z,9.50
2024-01-16T00:39:56.286Z,7.53
2024-01-16T00:42:24.205Z,5.00
2024-01-16T00:44:52.101Z,6.47
2024-01-16T00:47:20.187Z,3.60
2024-01-16T00:49:48.595Z,5.07
2024-01-16T00:52:16.554Z,4.60
2024-01-16T00:54:46.245Z,5.50
2024-01-16T00:57:16.479Z,6.90
2024-01-16T00:59:44.521Z,5.13
2024-01-16T01:02:13.164Z,4.90
2024-01-16T01:04:42.519Z,7.30
2024-01-16T01:07:10.468Z,5.13
2024-01-16T01:09:38.302Z,5.67
2024-01-16T01:12:08.870Z,4.00
2024-01-16T01:14:36.809Z,3.57
2024-01-16T01:17:05.139Z,3.97
2024-01-16T01:19:33.133Z,4.27
2024-01-16T01:22:00.995Z,4.43
2024-01-16T01:24:28.842Z,4.40
2024-01-16T01:26:56.722Z,6.97
2024-01-16T01:29:25.934Z,5.20
2024-01-16T01:31:53.823Z,18.93
2024-01-16T01:34:21.865Z,9.03
2024-01-16T01:36:49.843Z,5.53
2024-01-16T01:39:17.672Z,3.80
2024-01-16T01:41:45.655Z,5.17
2024-01-16T01:44:17.394Z,5.10
2024-01-16T01:46:47.624Z,3.47
2024-01-16T01:49:17.506Z,4.17
2024-01-16T01:51:46.495Z,5.50
2024-01-16T01:54:16.402Z,3.63
2024-01-16T01:56:46.947Z,5.70
2024-01-16T01:59:16.343Z,6.33
2024-01-16T02:01:46.952Z,3.63
2024-01-16T02:04:16.969Z,3.37
2024-01-16T02:06:45.822Z,6.77
2024-01-16T02:09:14.545Z,6.27
2024-01-16T02:11:42.522Z,4.67
2024-01-16T02:14:10.946Z,3.23
2024-01-16T02:16:39.993Z,6.20
2024-01-16T02:19:10.042Z,4.00
2024-01-16T02:21:41.337Z,4.70
2024-01-16T02:24:12.567Z,6.07
2024-01-16T02:26:40.838Z,3.30
2024-01-16T02:29:08.936Z,5.63
2024-01-16T02:31:36.885Z,5.27
2024-01-16T02:34:05.534Z,6.90
2024-01-16T02:36:34.276Z,9.03
2024-01-16T02:39:02.229Z,2.93
2024-01-16T02:41:31.427Z,8.83
2024-01-16T02:43:59.347Z,9.07
2024-01-16T02:46:27.217Z,6.30
2024-01-16T02:48:55.070Z,4.40
2024-01-16T02:51:22.889Z,3.57
2024-01-16T02:53:50.804Z,3.30
2024-01-16T02:56:18.739Z,4.47
2024-01-16T02:58:48.019Z,5.17
2024-01-16T03:01:15.957Z,4.63
2024-01-16T03:03:43.886Z,4.70
2024-01-16T03:06:12.016Z,3.20
2024-01-16T03:08:39.932Z,4.07
2024-01-16T03:11:08.365Z,5.63
2024-01-16T03:13:36.376Z,6.57
2024-01-16T03:16:08.765Z,3.40
2024-01-16T03:18:38.882Z,5.77
2024-01-16T03:21:08.601Z,2.87
2024-01-16T03:23:36.491Z,4.70
2024-01-16T03:26:04.860Z,3.60
2024-01-16T03:28:32.873Z,3.53
2024-01-16T03:31:00.712Z,5.30
2024-01-16T03:33:29.998Z,3.47
2024-01-16T03:35:57.917Z,3.03
2024-01-16T03:38:25.880Z,3.37
2024-01-16T03:40:53.793Z,4.50
2024-01-16T03:43:21.649Z,4.27
2024-01-16T03:45:49.549Z,3.27
2024-01-16T03:48:17.606Z,4.47
2024-01-16T03:50:48.388Z,4.77
2024-01-16T03:53:16.386Z,6.37
2024-01-16T03:55:44.608Z,3.33
2024-01-16T03:58:13.598Z,4.00
2024-01-16T04:00:41.710Z,3.83
2024-01-16T04:03:10.005Z,4.10
2024-01-16T04:05:38.025Z,4.33
2024-01-16T04:08:08.461Z,4.07
2024-01-16T04:10:36.574Z,3.43
2024-01-16T04:13:05.106Z,2.97
2024-01-16T04:15:32.960Z,3.43
2024-01-16T04:18:01.156Z,6.90
2024-01-16T04:20:29.033Z,2.63
2024-01-16T04:22:56.944Z,7.53
2024-01-16T04:25:26.168Z,6.03
2024-01-16T04:27:53.979Z,5.80
2024-01-16T04:30:22.485Z,6.00
2024-01-16T04:32:50.431Z,9.50
2024-01-16T04:35:18.422Z,11.37
2024-01-16T04:37:46.236Z,8.33
2024-01-16T04:40:14.148Z,16.70
2024-01-16T04:42:43.631Z,8.40
2024-01-16T04:45:11.918Z,4.30
2024-01-16T04:47:39.959Z,3.17
2024-01-16T04:50:09.215Z,4.67
2024-01-16T04:52:37.164Z,5.77
2024-01-16T04:55:05.534Z,5.17
2024-01-16T04:57:33.922Z,3.70
2024-01-16T05:00:06.836Z,5.10
2024-01-16T05:02:35.040Z,4.23
2024-01-16T05:05:02.955Z,4.77
2024-01-16T05:07:30.829Z,4.93
2024-01-16T05:09:59.188Z,6.17
2024-01-16T05:12:27.112Z,4.37
2024-01-16T05:14:55.030Z,4.67
2024-01-16T05:17:24.603Z,6.23
2024-01-16T05:19:52.546Z,4.27
2024-01-16T05:22:20.396Z,9.13
2024-01-16T05:24:48.247Z,7.13
2024-01-16T05:27:16.199Z,5.50
2024-01-16T05:29:44.729Z,5.40
2024-01-16T05:32:13.355Z,4.63
2024-01-16T05:34:42.664Z,5.57
2024-01-16T05:37:10.522Z,5.07
2024-01-16T05:39:38.496Z,8.17
2024-01-16T05:42:07.274Z,11.83
2024-01-16T05:44:35.282Z,9.87
2024-01-16T05:47:03.440Z,10.13
2024-01-16T05:49:31.349Z,5.33
2024-01-16T05:52:00.625Z,5.33
2024-01-16T05:54:28.497Z,8.90
2024-01-16T05:56:56.411Z,6.63
2024-01-16T05:59:24.283Z,7.27
2024-01-16T06:01:52.113Z,6.70
2024-01-16T06:04:20.230Z,6.60
2024-01-16T06:06:49.115Z,7.73
2024-01-16T06:09:19.547Z,6.17
2024-01-16T06:11:49.135Z,5.43
2024-01-16T06:14:22.481Z,5.80
2024-01-16T06:16:50.651Z,5.27
2024-01-16T06:19:18.523Z,7.13
2024-01-16T06:21:46.525Z,6.53
2024-01-16T06:24:14.885Z,4.40
2024-01-16T06:26:44.329Z,6.60
2024-01-16T06:29:21.152Z,6.23
2024-01-16T06:31:52.936Z,4.70
2024-01-16T06:34:20.839Z,4.77
2024-01-16T06:36:48.787Z,7.73
2024-01-16T06:39:17.051Z,15.90
2024-01-16T06:41:46.314Z,37.17
2024-01-16T06:44:14.306Z,29.20
2024-01-16T06:46:42.174Z,14.43
2024-01-16T06:49:10.163Z,8.80
2024-01-16T06:51:38.078Z,5.80
2024-01-16T06:54:06.104Z,7.00
2024-01-16T06:56:34.523Z,6.07
2024-01-16T06:59:04.076Z,9.93
2024-01-16T07:01:32.549Z,7.27
2024-01-16T07:04:00.572Z,9.10
2024-01-16T07:06:28.770Z,5.27
2024-01-16T07:08:56.842Z,7.40
2024-01-16T07:11:25.463Z,7.37
2024-01-16T07:13:53.395Z,11.10
2024-01-16T07:16:22.561Z,9.77
2024-01-16T07:18:50.796Z,11.63
2024-01-16T07:21:19.404Z,9.27
2024-01-16T07:23:47.665Z,9.23
2024-01-16T07:26:17.404Z,8.00
2024-01-16T07:28:45.685Z,7.07
2024-01-16T07:31:13.698Z,7.13
2024-01-16T07:33:43.053Z,6.97
2024-01-16T07:36:13.074Z,9.40
2024-01-16T07:38:41.202Z,7.33
2024-01-16T07:41:09.163Z,5.67
2024-01-16T07:43:37.201Z,12.30
2024-01-16T07:46:04.602Z,15.40
2024-01-16T07:48:32.641Z,7.07
2024-01-16T07:51:02.001Z,8.83
2024-01-16T07:53:29.938Z,7.53
2024-01-16T07:55:58.385Z,7.23
2024-01-16T07:58:26.265Z,7.80
2024-01-16T08:00:54.191Z,10.60
2024-01-16T08:03:22.104Z,11.37
2024-01-16T08:05:50.108Z,8.13
2024-01-16T08:08:19.472Z,8.10
2024-01-16T08:10:48.196Z,9.33
2024-01-16T08:13:16.059Z,10.53
2024-01-16T08:15:43.944Z,10.10
2024-01-16T08:18:12.110Z,7.63
2024-01-16T08:20:40.094Z,7.97
2024-01-16T08:23:08.001Z,9.67
2024-01-16T08:25:37.195Z,6.83
2024-01-16T08:28:06.035Z,7.63
2024-01-16T08:30:33.846Z,9.80
2024-01-16T08:33:01.970Z,7.93
2024-01-16T08:35:29.912Z,7.23
2024-01-16T08:37:57.976Z,8.23
2024-01-16T08:40:26.270Z,7.60
2024-01-16T08:42:58.159Z,9.83
2024-01-16T08:45:27.339Z,10.80
2024-01-16T08:47:55.634Z,10.10
2024-01-16T08:50:24.187Z,8.93
2024-01-16T08:52:52.578Z,9.40
2024-01-16T08:55:20.641Z,9.27
2024-01-16T08:57:48.459Z,8.10
2024-01-16T09:00:18.430Z,9.47
2024-01-16T09:02:46.374Z,6.97
2024-01-16T09:05:15.779Z,9.93
2024-01-16T09:07:43.944Z,8.77
2024-01-16T09:10:12.721Z,9.27
2024-01-16T09:12:40.555Z,8.30
2024-01-16T09:15:09.614Z,8.13
2024-01-16T09:17:40.201Z,9.20
2024-01-16T09:20:09.846Z,7.43
2024-01-16T09:22:37.736Z,8.77
2024-01-16T09:25:06.551Z,8.93
2024-01-16T09:27:34.449Z,8.13
2024-01-16T09:30:02.367Z,8.30
2024-01-16T09:32:30.424Z,8.90
2024-01-16T09:34:59.807Z,8.57
2024-01-16T09:37:27.681Z,10.67
2024-01-16T09:39:55.519Z,9.20
2024-01-16T09:42:23.399Z,7.40
2024-01-16T09:44:51.834Z,10.23
2024-01-16T09:47:21.285Z,7.93
2024-01-16T09:49:49.909Z,11.83
2024-01-16T09:52:19.236Z,11.13
2024-01-16T09:54:47.105Z,14.03
2024-01-16T09:57:16.373Z,10.87
2024-01-16T09:59:45.114Z,11.80
2024-01-16T10:02:15.746Z,13.07
2024-01-16T10:04:44.623Z,10.83
2024-01-16T10:07:14.623Z,11.70
2024-01-16T10:09:45.092Z,11.80
2024-01-16T10:12:13.105Z,13.00
2024-01-16T10:14:41.998Z,9.60
2024-01-16T10:17:15.246Z,9.87
2024-01-16T10:19:50.709Z,15.83
2024-01-16T10:22:25.827Z,9.13
2024-01-16T10:25:06.835Z,9.20
2024-01-16T10:27:35.068Z,12.07
2024-01-16T10:30:03.884Z,9.87
2024-01-16T10:32:33.257Z,9.83
2024-01-16T10:35:09.412Z,12.60
2024-01-16T10:37:45.143Z,8.03
2024-01-16T10:40:17.639Z,8.73
2024-01-16T10:42:47.327Z,7.83
2024-01-16T10:45:20.540Z,6.33
2024-01-16T10:47:49.165Z,6.23
2024-01-16T10:50:17.351Z,9.47
2024-01-16T10:52:50.027Z,8.53
2024-01-16T10:55:23.421Z,14.37
2024-01-16T10:57:52.023Z,7.80
2024-01-16T11:00:22.529Z,8.57
2024-01-16T11:02:54.685Z,9.60
2024-01-16T11:05:26.469Z,8.03
2024-01-16T11:07:57.324Z,7.40
2024-01-16T11:10:27.832Z,8.27
2024-01-16T11:12:57.849Z,9.20
2024-01-16T11:15:26.807Z,6.47
2024-01-16T11:17:55.928Z,8.33
2024-01-16T11:20:38.793Z,6.17
2024-01-16T11:23:13.930Z,7.43
2024-01-16T11:25:43.213Z,7.00
2024-01-16T11:28:12.775Z,6.20
2024-01-16T11:30:41.002Z,7.37
2024-01-16T11:33:29.162Z,5.97
2024-01-16T11:35:57.224Z,4.00
2024-01-16T11:38:28.130Z,6.80
2024-01-16T11:40:57.801Z,5.27
2024-01-16T11:43:39.112Z,4.43
2024-01-16T11:46:08.499Z,5.30
2024-01-16T11:48:36.878Z,5.13
2024-01-16T11:51:25.804Z,4.70
2024-01-16T11:53:53.842Z,4.60
2024-01-16T11:56:56.111Z,6.10
2024-01-16T11:59:56.442Z,4.13
2024-01-16T12:02:36.219Z,4.83
2024-01-16T12:05:07.962Z,5.27
2024-01-16T12:07:48.139Z,5.13
2024-01-16T12:10:16.118Z,5.50
2024-01-16T12:12:45.575Z,6.00
2024-01-16T12:15:18.322Z,4.83
2024-01-16T12:17:57.123Z,6.50
2024-01-16T12:20:26.842Z,4.77
2024-01-16T12:22:56.642Z,6.57
2024-01-16T12:25:24.866Z,6.13
2024-01-16T12:28:28.133Z,4.77
2024-01-16T12:31:00.846Z,5.53
2024-01-16T12:33:29.765Z,6.47
2024-01-16T12:36:04.215Z,6.93
2024-01-16T12:38:32.701Z,7.07
2024-01-16T12:41:03.438Z,5.67
2024-01-16T12:43:33.906Z,5.17
2024-01-16T12:46:01.965Z,6.70
2024-01-16T12:48:30.655Z,5.17
2024-01-16T12:51:02.145Z,5.93
2024-01-16T12:53:30.681Z,7.33
2024-01-16T12:56:03.516Z,4.87
2024-01-16T12:58:36.804Z,6.83
2024-01-16T13:01:34.206Z,5.83
2024-01-16T13:04:07.406Z,6.40
2024-01-16T13:06:35.650Z,7.87
2024-01-16T13:09:11.371Z,8.97
2024-01-16T13:11:51.762Z,7.33
2024-01-16T13:14:23.149Z,6.97
2024-01-16T13:16:51.913Z,8.00
2024-01-16T13:19:20.706Z,7.70
2024-01-16T13:21:49.209Z,8.03
2024-01-16T13:24:18.614Z,6.07
2024-01-16T13:26:46.942Z,6.27
2024-01-16T13:29:15.004Z,7.93
2024-01-16T13:31:44.716Z,8.80
2024-01-16T13:34:13.253Z,7.07
2024-01-16T13:36:54.543Z,4.47
2024-01-16T13:39:29.392Z,7.80
2024-01-16T13:41:57.251Z,9.83
2024-01-16T13:44:25.192Z,9.70
2024-01-16T13:47:01.803Z,8.53
2024-01-16T13:49:35.574Z,6.97
2024-01-16T13:52:04.532Z,6.53
2024-01-16T13:54:32.646Z,7.10
2024-01-16T13:57:06.781Z,6.87
2024-01-16T13:59:36.899Z,6.47
2024-01-16T14:02:07.230Z,5.67
2024-01-16T14:04:35.477Z,5.37
2024-01-16T14:07:12.180Z,8.07
2024-01-16T14:09:44.347Z,7.60
2024-01-16T14:12:13.410Z,7.53
2024-01-16T14:14:42.769Z,7.47
2024-01-16T14:17:12.268Z,7.30
2024-01-16T14:19:40.265Z,7.07
2024-01-16T14:22:08.229Z,10.33
2024-01-16T14:24:36.173Z,6.53
2024-01-16T14:27:04.204Z,6.63
2024-01-16T14:29:32.219Z,6.67
2024-01-16T14:32:00.123Z,6.83
2024-01-16T14:34:29.940Z,6.37
2024-01-16T14:36:57.790Z,8.27
2024-01-16T14:39:27.482Z,10.17
2024-01-16T14:41:56.185Z,7.23
2024-01-16T14:44:24.229Z,6.60
2024-01-16T14:46:55.227Z,7.00
2024-01-16T14:49:23.668Z,9.37
2024-01-16T14:51:53.038Z,7.70
2024-01-16T14:54:20.908Z,11.87
2024-01-16T14:56:49.920Z,19.90
2024-01-16T14:59:19.128Z,48.50
2024-01-16T15:01:47.135Z,15.03
2024-01-16T15:04:15.097Z,23.70
2024-01-16T15:06:43.243Z,32.57
2024-01-16T15:09:13.888Z,17.20
2024-01-16T15:11:43.170Z,10.83
2024-01-16T15:14:13.568Z,12.13
2024-01-16T15:16:41.449Z,9.37
2024-01-16T15:19:09.662Z,8.53
2024-01-16T15:21:37.944Z,10.30
2024-01-16T15:24:06.070Z,9.17
2024-01-16T15:26:35.368Z,14.23
2024-01-16T15:29:03.275Z,8.20
2024-01-16T15:31:31.140Z,9.33
2024-01-16T15:33:59.177Z,14.50
2024-01-16T15:36:27.370Z,10.57
2024-01-16T15:38:55.374Z,13.37
2024-01-16T15:41:23.584Z,13.97
2024-01-16T15:43:52.857Z,14.93
2024-01-16T15:46:21.595Z,10.13
2024-01-16T15:48:52.073Z,15.90
2024-01-16T15:51:20.276Z,14.57
2024-01-16T15:53:48.265Z,12.93
2024-01-16T15:56:16.985Z,11.63
2024-01-16T15:58:44.846Z,16.00
2024-01-16T16:01:14.110Z,14.33
2024-01-16T16:03:42.035Z,12.57
2024-01-16T16:06:10.628Z,13.17
2024-01-16T16:08:38.943Z,10.00
2024-01-16T16:11:06.887Z,9.70
2024-01-16T16:13:34.773Z,19.33
2024-01-16T16:16:03.381Z,24.57
2024-01-16T16:18:35.697Z,21.47
2024-01-16T16:21:03.881Z,18.70
2024-01-16T16:23:31.968Z,24.43
2024-01-16T16:26:00.058Z,25.80
2024-01-16T16:28:27.967Z,23.33
2024-01-16T16:30:56.000Z,18.50
2024-01-16T16:33:25.008Z,18.40
2024-01-16T16:35:54.846Z,19.80
2024-01-16T16:38:22.739Z,16.40
2024-01-16T16:40:50.589Z,14.63
2024-01-16T16:43:18.430Z,12.57
2024-01-16T16:45:46.498Z,10.40
2024-01-16T16:48:14.973Z,14.77
2024-01-16T16:50:44.120Z,14.90
2024-01-16T16:53:13.379Z,16.00
2024-01-16T16:55:41.251Z,16.63
2024-01-16T16:58:10.441Z,18.77
2024-01-16T17:00:39.930Z,15.63
2024-01-16T17:03:08.920Z,12.33
2024-01-16T17:05:37.151Z,13.30
2024-01-16T17:08:05.724Z,12.20
2024-01-16T17:10:34.975Z,10.17
2024-01-16T17:13:03.575Z,13.60
2024-01-16T17:15:31.679Z,13.10
2024-01-16T17:17:59.605Z,13.20
2024-01-16T17:20:27.618Z,24.43
2024-01-16T17:22:55.521Z,18.27
2024-01-16T17:25:23.496Z,16.10
2024-01-16T17:27:52.706Z,6.73
2024-01-16T17:30:21.110Z,9.30
2024-01-16T17:32:49.132Z,7.97
2024-01-16T17:35:19.558Z,9.40
2024-01-16T17:37:47.563Z,10.97
2024-01-16T17:40:15.572Z,11.90
2024-01-16T17:42:44.337Z,12.87
2024-01-16T17:45:13.520Z,11.77
2024-01-16T17:47:41.985Z,10.93
2024-01-16T17:50:12.573Z,11.90
2024-01-16T17:52:40.629Z,11.10
2024-01-16T17:55:09.897Z,11.73
2024-01-16T17:57:37.780Z,14.40
2024-01-16T18:00:07.119Z,22.37
2024-01-16T18:02:36.409Z,82.67
2024-01-16T18:05:11.170Z,49.77
2024-01-16T18:07:39.559Z,24.93
2024-01-16T18:10:10.117Z,20.10
2024-01-16T18:12:39.109Z,25.10
2024-01-16T18:15:12.855Z,19.70
2024-01-16T18:17:42.868Z,17.87
2024-01-16T18:20:11.912Z,15.90
2024-01-16T18:22:39.992Z,16.33
2024-01-16T18:25:09.776Z,16.67
2024-01-16T18:27:38.617Z,13.70
2024-01-16T18:30:07.966Z,15.03
2024-01-16T18:32:36.117Z,12.47
2024-01-16T18:35:06.608Z,20.80
2024-01-16T18:37:34.447Z,22.80
2024-01-16T18:40:02.391Z,24.97
2024-01-16T18:42:30.256Z,34.10
2024-01-16T18:44:58.255Z,28.27
2024-01-16T18:47:26.546Z,26.77
2024-01-16T18:49:54.502Z,21.23
2024-01-16T18:52:23.772Z,23.73
2024-01-16T18:54:52.049Z,24.70
2024-01-16T18:57:19.899Z,25.30
2024-01-16T18:59:47.786Z,38.27
2024-01-16T19:02:21.840Z,20.87
2024-01-16T19:04:50.428Z,16.83
2024-01-16T19:07:18.735Z,13.93
2024-01-16T19:09:47.978Z,15.37
2024-01-16T19:12:15.873Z,20.10
2024-01-16T19:14:46.233Z,218.37
2024-01-16T19:17:16.727Z,81.23
2024-01-16T19:19:44.591Z,28.97
2024-01-16T19:22:12.493Z,31.60
2024-01-16T19:24:40.325Z,21.43
2024-01-16T19:27:09.750Z,23.63
2024-01-16T19:29:37.642Z,12.07
2024-01-16T19:32:06.575Z,17.60
2024-01-16T19:34:34.505Z,20.97
2024-01-16T19:37:02.651Z,33.63
2024-01-16T19:39:33.686Z,40.60
2024-01-16T19:42:01.869Z,43.90
2024-01-16T19:44:31.267Z,37.27
2024-01-16T19:46:59.195Z,31.23
2024-01-16T19:49:27.770Z,29.37
2024-01-16T19:51:55.662Z,35.40
2024-01-16T19:54:22.608Z,24.13
2024-01-16T19:56:50.535Z,25.20
2024-01-16T19:59:18.509Z,35.33
2024-01-16T20:01:48.013Z,25.77
2024-01-16T20:04:17.445Z,25.63
2024-01-16T20:06:46.551Z,19.27
2024-01-16T20:09:17.399Z,14.00
2024-01-16T20:11:47.237Z,18.87
2024-01-16T20:14:16.678Z,17.97
2024-01-16T20:16:44.685Z,26.97
2024-01-16T20:19:14.515Z,18.93
2024-01-16T20:21:45.473Z,19.83
2024-01-16T20:24:13.652Z,16.17
2024-01-16T20:26:42.121Z,10.53
2024-01-16T20:29:11.500Z,19.87
2024-01-16T20:31:41.696Z,47.83
2024-01-16T20:34:09.690Z,23.77
2024-01-16T20:36:39.683Z,23.03
2024-01-16T20:39:10.037Z,35.37
2024-01-16T20:41:37.993Z,29.47
2024-01-16T20:44:06.117Z,38.53
2024-01-16T20:46:36.351Z,37.27
2024-01-16T20:49:06.463Z,43.87
2024-01-16T20:51:34.353Z,30.70
2024-01-16T20:54:06.021Z,59.13
2024-01-16T20:56:34.108Z,38.90
2024-01-16T20:59:02.021Z,34.20
2024-01-16T21:01:29.923Z,30.13
2024-01-16T21:03:57.774Z,27.03
2024-01-16T21:06:25.776Z,24.90
2024-01-16T21:08:53.737Z,26.00
2024-01-16T21:11:23.035Z,28.43
2024-01-16T21:13:52.294Z,26.53
2024-01-16T21:16:19.460Z,27.83
2024-01-16T21:18:49.724Z,26.90
2024-01-16T21:21:17.679Z,34.03
2024-01-16T21:23:46.733Z,42.50
2024-01-16T21:26:14.679Z,38.03
2024-01-16T21:28:44.198Z,53.17
2024-01-16T21:31:12.251Z,77.10
2024-01-16T21:33:40.942Z,80.63
2024-01-16T21:36:09.585Z,81.23
2024-01-16T21:38:37.528Z,69.93
2024-01-16T21:41:07.969Z,45.13
2024-01-16T21:43:35.959Z,42.87
2024-01-16T21:46:05.504Z,40.87
2024-01-16T21:48:33.950Z,41.07
2024-01-16T21:51:02.198Z,35.10
2024-01-16T21:53:30.735Z,36.27
2024-01-16T21:55:58.607Z,33.83
2024-01-16T21:58:27.477Z,34.27
2024-01-16T22:00:56.594Z,35.50
2024-01-16T22:03:26.910Z,38.63
2024-01-16T22:05:57.724Z,42.47
2024-01-16T22:08:25.791Z,43.53
2024-01-16T22:10:54.227Z,39.60
2024-01-16T22:13:23.340Z,29.00
2024-01-16T22:15:51.411Z,26.33
2024-01-16T22:18:19.562Z,37.17
2024-01-16T22:20:49.027Z,34.57
2024-01-16T22:23:17.190Z,33.00
2024-01-16T22:25:45.470Z,29.13
2024-01-16T22:28:13.766Z,30.10
2024-01-16T22:30:41.877Z,38.47
2024-01-16T22:33:09.933Z,44.03
2024-01-16T22:35:37.933Z,39.77
2024-01-16T22:38:07.215Z,34.87
2024-01-16T22:40:37.603Z,30.03
2024-01-16T22:43:06.724Z,36.30
2024-01-16T22:45:34.763Z,33.97
2024-01-16T22:48:06.305Z,31.93
2024-01-16T22:50:34.293Z,35.20
2024-01-16T22:53:03.668Z,33.30
2024-01-16T22:55:32.943Z,33.93
2024-01-16T22:58:01.044Z,41.07
2024-01-16T23:00:30.474Z,35.30
2024-01-16T23:02:58.871Z,33.73
2024-01-16T23:05:28.688Z,25.33
2024-01-16T23:07:58.051Z,27.70
2024-01-16T23:10:26.891Z,26.60
2024-01-16T23:12:56.208Z,35.07
2024-01-16T23:15:24.100Z,28.57
2024-01-16T23:17:52.086Z,29.33
2024-01-16T23:20:20.969Z,24.77
2024-01-16T23:22:49.181Z,24.03
2024-01-16T23:25:17.348Z,26.63
2024-01-16T23:27:45.682Z,29.33
2024-01-16T23:30:15.208Z,27.33
2024-01-16T23:32:43.330Z,25.50
2024-01-16T23:35:11.517Z,28.97
2024-01-16T23:37:41.418Z,25.63
2024-01-16T23:40:13.254Z,24.00
2024-01-16T23:42:42.365Z,22.27
2024-01-16T23:45:20.506Z,23.70
2024-01-16T23:47:56.814Z,27.37
2024-01-16T23:50:24.812Z,25.67
2024-01-16T23:52:52.669Z,29.87
2024-01-16T23:55:20.515Z,56.27
2024-01-16T23:57:48.370Z,42.93
